createdAt,value
2023-02-11T00:01:00.394Z,99876.84
2023-02-11T00:03:27.546Z,99877.31
2023-02-11T00:06:01.961Z,99881.09
2023-02-11T00:08:28.904Z,99874.59
2023-02-11T00:10:57.763Z,99877.22
2023-02-11T00:13:25.653Z,99876.94
2023-02-11T00:15:53.481Z,99869.38
2023-02-11T00:18:21.047Z,99870.34
2023-02-11T00:20:48.261Z,99871.78
2023-02-11T00:23:15.517Z,99876.75
2023-02-11T00:25:44.534Z,99877.91
2023-02-11T00:28:12.179Z,99882.00
2023-02-11T00:30:41.163Z,99876.03
2023-02-11T00:33:08.715Z,99875.28
2023-02-11T00:35:38.618Z,99881.38
2023-02-11T00:38:07.911Z,99886.97
2023-02-11T00:40:34.966Z,99877.59
2023-02-11T00:43:03.805Z,99876.03
2023-02-11T00:45:30.946Z,99879.59
2023-02-11T00:47:58.045Z,99889.94
2023-02-11T00:50:25.463Z,99890.03
2023-02-11T00:52:52.402Z,99895.28
2023-02-11T00:55:19.372Z,99898.69
2023-02-11T00:57:46.390Z,99907.72
2023-02-11T01:00:14.231Z,99905.22
2023-02-11T01:02:41.491Z,99896.03
2023-02-11T01:05:09.920Z,99896.94
2023-02-11T01:07:36.852Z,99891.97
2023-02-11T01:10:04.532Z,99898.88
2023-02-11T01:12:32.577Z,99911.44
2023-02-11T01:15:00.488Z,99901.09
2023-02-11T01:17:27.677Z,99915.06
2023-02-11T01:19:54.577Z,99912.41
2023-02-11T01:22:21.664Z,99921.97
2023-02-11T01:24:48.579Z,99920.41
2023-02-11T01:27:15.703Z,99929.00
2023-02-11T01:29:42.561Z,99928.91
2023-02-11T01:32:09.584Z,99917.91
2023-02-11T01:34:36.672Z,99924.94
2023-02-11T01:37:03.583Z,99926.63
2023-02-11T01:39:33.918Z,99927.38
2023-02-11T01:42:01.311Z,99930.06
2023-02-11T01:44:38.078Z,99931.13
2023-02-11T01:47:06.715Z,99937.41
2023-02-11T01:49:40.059Z,99929.53
2023-02-11T01:52:13.185Z,99932.84
2023-02-11T01:55:02.115Z,99924.81
2023-02-11T01:57:33.948Z,99923.47
2023-02-11T02:00:17.397Z,99930.75
2023-02-11T02:03:08.347Z,99920.22
2023-02-11T02:05:57.008Z,99934.81
2023-02-11T02:08:55.221Z,99922.63
2023-02-11T02:11:22.743Z,99912.19
2023-02-11T02:13:49.864Z,99915.25
2023-02-11T02:16:19.587Z,99917.56
2023-02-11T02:19:11.113Z,99918.78
2023-02-11T02:22:15.046Z,99932.16
2023-02-11T02:24:57.883Z,99924.09
2023-02-11T02:27:45.943Z,99924.22
2023-02-11T02:30:31.762Z,99926.50
2023-02-11T02:33:53.283Z,99929.50
2023-02-11T02:36:28.668Z,99929.38
2023-02-11T02:38:55.739Z,99927.41
2023-02-11T02:41:28.664Z,99932.97
2023-02-11T02:43:56.012Z,99927.88
2023-02-11T02:46:29.337Z,99927.13
2023-02-11T02:48:57.593Z,99927.88
2023-02-11T02:51:39.813Z,99923.72
2023-02-11T02:54:31.401Z,99922.97
2023-02-11T02:57:32.946Z,99923.47
2023-02-11T03:00:15.072Z,99918.78
2023-02-11T03:02:53.754Z,99923.63
2023-02-11T03:05:40.268Z,99916.88
2023-02-11T03:08:14.098Z,99919.66
2023-02-11T03:10:44.575Z,99922.63
2023-02-11T03:13:13.704Z,99924.75
2023-02-11T03:15:46.920Z,99915.81
2023-02-11T03:18:17.688Z,99918.72
2023-02-11T03:20:49.154Z,99907.84
2023-02-11T03:23:35.451Z,99910.69
2023-02-11T03:26:10.734Z,99918.88
2023-02-11T03:29:00.579Z,99912.28
2023-02-11T03:31:34.354Z,99902.22
2023-02-11T03:34:15.376Z,99893.47
2023-02-11T03:36:49.665Z,99907.06
2023-02-11T03:39:22.660Z,99903.75
2023-02-11T03:41:51.676Z,99904.03
2023-02-11T03:44:21.103Z,99904.69
2023-02-11T03:46:52.739Z,99906.50
2023-02-11T03:49:23.471Z,99904.16
2023-02-11T03:51:53.183Z,99903.66
2023-02-11T03:54:28.418Z,99902.47
2023-02-11T03:56:58.367Z,99893.69
2023-02-11T03:59:25.789Z,99903.56
2023-02-11T04:01:53.184Z,99902.09
2023-02-11T04:04:20.368Z,99901.31
2023-02-11T04:06:47.278Z,99901.72
2023-02-11T04:09:15.110Z,99896.59
2023-02-11T04:11:42.015Z,99897.56
2023-02-11T04:14:08.991Z,99892.69
2023-02-11T04:16:35.990Z,99892.81
2023-02-11T04:19:03.078Z,99899.59
2023-02-11T04:21:30.098Z,99894.59
2023-02-11T04:23:57.004Z,99886.03
2023-02-11T04:26:23.952Z,99880.19
2023-02-11T04:28:50.899Z,99892.50
2023-02-11T04:31:17.923Z,99883.09
2023-02-11T04:33:44.970Z,99887.63
2023-02-11T04:36:13.028Z,99895.41
2023-02-11T04:38:39.886Z,99884.44
2023-02-11T04:41:06.862Z,99880.25
2023-02-11T04:43:33.764Z,99890.53
2023-02-11T04:46:00.722Z,99885.34
2023-02-11T04:48:27.684Z,99893.09
2023-02-11T04:50:54.618Z,99892.56
2023-02-11T04:53:21.715Z,99893.97
2023-02-11T04:55:51.007Z,99890.41
2023-02-11T04:58:19.134Z,99895.53
2023-02-11T05:00:46.501Z,99897.09
2023-02-11T05:03:14.008Z,99891.97
2023-02-11T05:05:42.220Z,99893.72
2023-02-11T05:08:10.430Z,99889.28
2023-02-11T05:10:37.964Z,99898.84
2023-02-11T05:13:05.020Z,99895.53
2023-02-11T05:15:31.946Z,99889.63
2023-02-11T05:17:58.908Z,99890.13
2023-02-11T05:20:25.977Z,99896.13
2023-02-11T05:22:52.893Z,99897.16
2023-02-11T05:25:20.829Z,99894.16
2023-02-11T05:27:47.767Z,99893.94
2023-02-11T05:30:15.082Z,99889.53
2023-02-11T05:32:42.292Z,99888.47
2023-02-11T05:35:09.681Z,99884.47
2023-02-11T05:37:36.668Z,99891.25
2023-02-11T05:40:04.657Z,99884.75
2023-02-11T05:42:31.671Z,99890.16
2023-02-11T05:44:58.805Z,99878.28
2023-02-11T05:47:25.827Z,99884.75
2023-02-11T05:49:56.028Z,99878.63
2023-02-11T05:52:23.696Z,99880.34
2023-02-11T05:54:51.017Z,99880.63
2023-02-11T05:57:18.754Z,99883.34
2023-02-11T05:59:45.642Z,99885.63
2023-02-11T06:02:12.561Z,99886.97
2023-02-11T06:04:39.628Z,99882.63
2023-02-11T06:07:06.580Z,99893.03
2023-02-11T06:09:33.672Z,99880.19
2023-02-11T06:12:00.596Z,99891.19
2023-02-11T06:14:27.584Z,99887.31
2023-02-11T06:16:54.627Z,99879.13
2023-02-11T06:19:21.492Z,99882.72
2023-02-11T06:21:48.509Z,99884.31
2023-02-11T06:24:17.424Z,99876.41
2023-02-11T06:26:46.209Z,99881.22
2023-02-11T06:29:14.092Z,99875.66
2023-02-11T06:31:41.534Z,99887.94
2023-02-11T06:34:10.135Z,99877.91
2023-02-11T06:36:39.795Z,99874.63
2023-02-11T06:39:07.521Z,99875.72
2023-02-11T06:41:34.825Z,99874.66
2023-02-11T06:44:01.826Z,99864.81
2023-02-11T06:46:28.830Z,99870.41
2023-02-11T06:48:55.901Z,99866.78
2023-02-11T06:51:23.223Z,99870.41
2023-02-11T06:53:50.216Z,99875.41
2023-02-11T06:56:22.639Z,99874.13
2023-02-11T06:58:54.800Z,99877.56
2023-02-11T07:01:22.559Z,99880.16
2023-02-11T07:03:50.152Z,99882.56
2023-02-11T07:06:21.553Z,99880.03
2023-02-11T07:08:49.270Z,99879.38
2023-02-11T07:11:20.621Z,99879.56
2023-02-11T07:13:47.976Z,99888.63
2023-02-11T07:16:17.047Z,99880.78
2023-02-11T07:18:45.128Z,99882.13
2023-02-11T07:21:15.027Z,99871.75
2023-02-11T07:23:42.520Z,99877.59
2023-02-11T07:26:12.326Z,99872.59
2023-02-11T07:28:40.713Z,99870.84
2023-02-11T07:31:13.956Z,99866.94
2023-02-11T07:33:41.923Z,99863.81
2023-02-11T07:36:10.831Z,99859.56
2023-02-11T07:38:38.313Z,99866.84
2023-02-11T07:41:11.577Z,99863.59
2023-02-11T07:43:39.682Z,99865.25
2023-02-11T07:46:09.130Z,99852.50
2023-02-11T07:48:36.365Z,99865.69
2023-02-11T07:51:24.361Z,99855.06
2023-02-11T07:53:52.201Z,99850.06
2023-02-11T07:56:20.370Z,99856.44
2023-02-11T07:58:47.909Z,99856.94
2023-02-11T08:01:18.425Z,99851.81
2023-02-11T08:03:45.912Z,99854.34
2023-02-11T08:06:15.303Z,99843.66
2023-02-11T08:08:42.993Z,99839.94
2023-02-11T08:11:15.516Z,99840.50
2023-02-11T08:13:43.303Z,99843.34
2023-02-11T08:16:18.216Z,99843.44
2023-02-11T08:18:45.376Z,99830.19
2023-02-11T08:21:12.472Z,99828.22
2023-02-11T08:23:41.132Z,99823.56
2023-02-11T08:26:20.366Z,99826.19
2023-02-11T08:28:48.528Z,99809.53
2023-02-11T08:31:23.997Z,99811.56
2023-02-11T08:33:51.426Z,99806.13
2023-02-11T08:36:25.414Z,99807.72
2023-02-11T08:39:15.995Z,99801.16
2023-02-11T08:41:46.459Z,99808.09
2023-02-11T08:44:13.492Z,99799.97
2023-02-11T08:46:40.399Z,99788.84
2023-02-11T08:49:07.395Z,99786.28
2023-02-11T08:51:34.483Z,99788.00
2023-02-11T08:54:01.657Z,99778.53
2023-02-11T08:56:28.862Z,99772.16
2023-02-11T08:58:55.884Z,99757.78
2023-02-11T09:01:26.971Z,99763.03
2023-02-11T09:03:54.822Z,99753.66
2023-02-11T09:06:24.183Z,99740.69
2023-02-11T09:08:53.691Z,99735.41
2023-02-11T09:11:25.418Z,99729.66
2023-02-11T09:13:54.370Z,99720.16
2023-02-11T09:16:24.943Z,99719.88
2023-02-11T09:18:52.317Z,99720.41
2023-02-11T09:21:19.898Z,99706.00
2023-02-11T09:23:48.005Z,99696.31
2023-02-11T09:26:19.580Z,99675.78
2023-02-11T09:28:47.488Z,99683.94
2023-02-11T09:31:19.686Z,99678.38
2023-02-11T09:33:48.644Z,99677.00
2023-02-11T09:36:21.494Z,99675.31
2023-02-11T09:38:49.360Z,99671.66
2023-02-11T09:41:25.321Z,99671.63
2023-02-11T09:43:54.761Z,99673.56
2023-02-11T09:46:23.455Z,99673.41
2023-02-11T09:48:53.441Z,99670.16
2023-02-11T09:51:30.123Z,99661.28
2023-02-11T09:54:05.562Z,99650.41
2023-02-11T09:56:32.856Z,99651.72
2023-02-11T09:58:59.967Z,99647.09
2023-02-11T10:01:50.550Z,99651.81
2023-02-11T10:04:41.936Z,99645.09
2023-02-11T10:07:19.256Z,99647.75
2023-02-11T10:09:56.414Z,99636.38
2023-02-11T10:12:55.361Z,99633.06
2023-02-11T10:15:50.923Z,99633.47
2023-02-11T10:18:39.320Z,99630.50
2023-02-11T10:21:06.193Z,99627.31
2023-02-11T10:23:43.415Z,99616.56
2023-02-11T10:26:17.171Z,99613.06
2023-02-11T10:28:47.751Z,99602.44
2023-02-11T10:31:18.234Z,99597.81
2023-02-11T10:33:47.608Z,99581.06
2023-02-11T10:36:16.388Z,99579.63
2023-02-11T10:38:43.740Z,99573.25
2023-02-11T10:41:17.749Z,99568.91
2023-02-11T10:43:44.972Z,99554.44
2023-02-11T10:46:18.594Z,99566.38
2023-02-11T10:48:49.646Z,99547.56
2023-02-11T10:51:34.402Z,99537.78
2023-02-11T10:54:04.418Z,99541.25
2023-02-11T10:56:46.412Z,99530.00
2023-02-11T10:59:29.489Z,99526.63
2023-02-11T11:01:57.708Z,99521.88
2023-02-11T11:04:30.833Z,99529.44
2023-02-11T11:07:14.808Z,99528.09
2023-02-11T11:10:25.795Z,99521.81
2023-02-11T11:12:52.854Z,99505.03
2023-02-11T11:15:28.862Z,99512.28
2023-02-11T11:18:21.464Z,99508.66
2023-02-11T11:21:31.530Z,99491.59
2023-02-11T11:24:03.467Z,99464.75
2023-02-11T11:26:42.021Z,99474.31
2023-02-11T11:29:27.833Z,99456.00
2023-02-11T11:32:05.317Z,99457.84
2023-02-11T11:34:37.286Z,99459.25
2023-02-11T11:37:13.878Z,99460.31
2023-02-11T11:39:41.045Z,99441.94
2023-02-11T11:42:32.860Z,99453.53
2023-02-11T11:45:19.793Z,99436.06
2023-02-11T11:48:16.030Z,99431.94
2023-02-11T11:50:56.551Z,99424.97
2023-02-11T11:53:34.934Z,99422.09
2023-02-11T11:56:20.367Z,99422.16
2023-02-11T11:58:48.036Z,99412.28
2023-02-11T12:01:27.130Z,99413.63
2023-02-11T12:04:02.988Z,99408.94
2023-02-11T12:07:02.385Z,99403.53
2023-02-11T12:10:06.853Z,99399.41
2023-02-11T12:12:59.121Z,99394.16
2023-02-11T12:15:29.109Z,99392.41
2023-02-11T12:18:22.335Z,99395.06
2023-02-11T12:21:07.892Z,99387.00
2023-02-11T12:23:51.760Z,99371.47
2023-02-11T12:26:43.032Z,99376.41
2023-02-11T12:29:34.418Z,99377.34
2023-02-11T12:32:16.161Z,99371.91
2023-02-11T12:35:01.843Z,99379.63
2023-02-11T12:38:08.388Z,99368.81
2023-02-11T12:40:51.261Z,99358.28
2023-02-11T12:43:31.388Z,99342.66
2023-02-11T12:46:17.028Z,99339.63
2023-02-11T12:48:49.928Z,99334.84
2023-02-11T12:51:38.919Z,99316.75
2023-02-11T12:54:16.129Z,99314.53
2023-02-11T12:57:02.843Z,99312.69
2023-02-11T12:59:43.766Z,99298.03
2023-02-11T13:03:06.365Z,99294.69
2023-02-11T13:05:49.619Z,99282.97
2023-02-11T13:08:19.586Z,99275.34
2023-02-11T13:10:51.005Z,99270.22
2023-02-11T13:13:37.802Z,99258.72
2023-02-11T13:16:19.924Z,99256.91
2023-02-11T13:18:54.782Z,99247.44
2023-02-11T13:22:00.460Z,99246.13
2023-02-11T13:24:36.340Z,99256.06
2023-02-11T13:27:30.094Z,99236.59
2023-02-11T13:30:18.893Z,99206.97
2023-02-11T13:32:55.726Z,99219.81
2023-02-11T13:35:39.185Z,99200.06
2023-02-11T13:38:27.831Z,99208.25
2023-02-11T13:41:28.668Z,99201.63
2023-02-11T13:44:04.140Z,99189.16
2023-02-11T13:46:50.076Z,99177.78
2023-02-11T13:49:42.254Z,99165.75
2023-02-11T13:52:21.947Z,99167.59
2023-02-11T13:54:52.911Z,99162.19
2023-02-11T13:57:19.840Z,99155.22
2023-02-11T13:59:52.695Z,99145.13
2023-02-11T14:02:56.017Z,99144.41
2023-02-11T14:05:47.859Z,99136.88
2023-02-11T14:08:39.083Z,99117.78
2023-02-11T14:11:12.482Z,99114.38
2023-02-11T14:14:02.387Z,99098.81
2023-02-11T14:16:38.062Z,99099.44
2023-02-11T14:19:06.795Z,99093.47
2023-02-11T14:21:38.281Z,99086.78
2023-02-11T14:24:05.228Z,99076.50
2023-02-11T14:26:59.675Z,99077.81
2023-02-11T14:29:35.621Z,99065.97
2023-02-11T14:32:33.595Z,99066.06
2023-02-11T14:35:07.535Z,99047.34
2023-02-11T14:37:59.596Z,99039.47
2023-02-11T14:40:46.086Z,99028.09
2023-02-11T14:43:18.891Z,99025.06
2023-02-11T14:45:51.876Z,99022.41
2023-02-11T14:48:20.594Z,99008.84
2023-02-11T14:51:00.792Z,99006.97
2023-02-11T14:53:30.775Z,98996.63
2023-02-11T14:55:58.590Z,98992.69
2023-02-11T14:58:33.085Z,98985.34
2023-02-11T15:01:09.189Z,98987.63
2023-02-11T15:03:49.037Z,98982.81
2023-02-11T15:06:20.141Z,98977.56
2023-02-11T15:08:54.339Z,98965.75
2023-02-11T15:11:24.136Z,98967.97
2023-02-11T15:13:54.354Z,98958.59
2023-02-11T15:16:27.445Z,98959.78
2023-02-11T15:18:59.733Z,98946.44
2023-02-11T15:21:30.259Z,98934.91
2023-02-11T15:24:06.094Z,98939.41
2023-02-11T15:26:33.537Z,98931.66
2023-02-11T15:29:00.904Z,98931.25
2023-02-11T15:31:28.509Z,98925.72
2023-02-11T15:33:55.838Z,98928.28
2023-02-11T15:36:28.878Z,98916.34
2023-02-11T15:39:18.325Z,98917.28
2023-02-11T15:41:45.832Z,98912.06
2023-02-11T15:44:30.588Z,98902.28
2023-02-11T15:46:58.470Z,98902.56
2023-02-11T15:49:26.663Z,98904.44
2023-02-11T15:51:57.136Z,98891.41
2023-02-11T15:54:27.906Z,98889.53
2023-02-11T15:57:02.717Z,98885.78
2023-02-11T15:59:36.089Z,98877.44
2023-02-11T16:02:14.232Z,98881.44
2023-02-11T16:04:52.448Z,98877.38
2023-02-11T16:07:58.260Z,98872.63
2023-02-11T16:10:35.238Z,98873.84
2023-02-11T16:13:07.712Z,98866.56
2023-02-11T16:15:34.658Z,98865.44
2023-02-11T16:18:03.263Z,98853.63
2023-02-11T16:20:30.728Z,98837.06
2023-02-11T16:22:57.870Z,98850.59
2023-02-11T16:25:25.005Z,98843.66
2023-02-11T16:27:53.474Z,98841.38
2023-02-11T16:30:27.049Z,98839.84
2023-02-11T16:32:54.679Z,98836.25
2023-02-11T16:35:21.584Z,98825.13
2023-02-11T16:37:48.603Z,98836.25
2023-02-11T16:40:16.046Z,98828.47
2023-02-11T16:42:42.974Z,98820.63
2023-02-11T16:45:10.273Z,98806.63
2023-02-11T16:47:41.026Z,98808.31
2023-02-11T16:50:19.328Z,98792.47
2023-02-11T16:52:47.262Z,98793.69
2023-02-11T16:55:15.273Z,98785.09
2023-02-11T16:57:42.326Z,98780.16
2023-02-11T17:00:17.509Z,98766.97
2023-02-11T17:02:44.709Z,98771.00
2023-02-11T17:05:18.906Z,98776.13
2023-02-11T17:07:46.756Z,98786.19
2023-02-11T17:10:23.970Z,98765.63
2023-02-11T17:12:52.641Z,98769.88
2023-02-11T17:15:19.683Z,98764.94
2023-02-11T17:17:46.859Z,98745.00
2023-02-11T17:20:14.624Z,98744.06
2023-02-11T17:22:41.817Z,98748.28
2023-02-11T17:25:09.054Z,98721.25
2023-02-11T17:27:36.044Z,98736.03
2023-02-11T17:30:05.642Z,98738.63
2023-02-11T17:32:32.565Z,98730.53
2023-02-11T17:34:59.621Z,98724.03
2023-02-11T17:37:26.493Z,98716.44
2023-02-11T17:39:53.399Z,98707.91
2023-02-11T17:42:20.379Z,98707.81
2023-02-11T17:44:47.472Z,98694.44
2023-02-11T17:47:14.543Z,98705.13
2023-02-11T17:49:41.737Z,98686.22
2023-02-11T17:52:08.877Z,98681.31
2023-02-11T17:54:35.955Z,98676.38
2023-02-11T17:57:02.938Z,98674.50
2023-02-11T17:59:35.375Z,98659.81
2023-02-11T18:02:03.879Z,98657.75
2023-02-11T18:04:31.265Z,98650.88
2023-02-11T18:06:58.628Z,98647.38
2023-02-11T18:09:26.751Z,98647.47
2023-02-11T18:11:54.273Z,98640.63
2023-02-11T18:14:22.471Z,98634.41
2023-02-11T18:16:51.284Z,98619.50
2023-02-11T18:19:19.010Z,98635.66
2023-02-11T18:21:48.958Z,98616.09
2023-02-11T18:24:17.032Z,98615.38
2023-02-11T18:26:44.090Z,98607.50
2023-02-11T18:29:11.099Z,98600.47
2023-02-11T18:31:38.543Z,98595.31
2023-02-11T18:34:07.723Z,98593.91
2023-02-11T18:36:35.001Z,98593.41
2023-02-11T18:39:02.424Z,98583.91
2023-02-11T18:41:29.890Z,98575.28
2023-02-11T18:44:03.059Z,98583.13
2023-02-11T18:46:31.407Z,98573.56
2023-02-11T18:48:58.614Z,98567.38
2023-02-11T18:51:25.684Z,98564.22
2023-02-11T18:53:53.026Z,98561.66
2023-02-11T18:56:22.886Z,98559.56
2023-02-11T18:58:51.425Z,98559.13
2023-02-11T19:01:21.072Z,98554.44
2023-02-11T19:03:48.495Z,98554.44
2023-02-11T19:06:20.121Z,98551.38
2023-02-11T19:08:47.479Z,98552.50
2023-02-11T19:11:16.256Z,98557.09
2023-02-11T19:13:43.185Z,98548.16
2023-02-11T19:16:11.567Z,98529.38
2023-02-11T19:18:38.912Z,98540.28
2023-02-11T19:21:10.513Z,98533.28
2023-02-11T19:23:38.025Z,98539.63
2023-02-11T19:26:06.510Z,98516.72
2023-02-11T19:28:37.125Z,98529.94
2023-02-11T19:31:10.343Z,98537.22
2023-02-11T19:33:37.306Z,98524.16
2023-02-11T19:36:06.865Z,98527.44
2023-02-11T19:38:34.347Z,98517.97
2023-02-11T19:41:01.432Z,98505.00
2023-02-11T19:43:28.647Z,98508.91
2023-02-11T19:45:58.614Z,98508.56
2023-02-11T19:48:25.852Z,98509.16
2023-02-11T19:50:52.926Z,98509.47
2023-02-11T19:53:19.886Z,98497.63
2023-02-11T19:55:47.264Z,98495.50
2023-02-11T19:58:15.237Z,98490.50
2023-02-11T20:00:42.590Z,98482.38
2023-02-11T20:03:09.670Z,98490.53
2023-02-11T20:05:42.442Z,98478.63
2023-02-11T20:08:09.368Z,98477.16
2023-02-11T20:10:36.401Z,98476.50
2023-02-11T20:13:03.999Z,98471.03
2023-02-11T20:15:31.199Z,98461.13
2023-02-11T20:17:58.145Z,98466.91
2023-02-11T20:20:25.265Z,98454.47
2023-02-11T20:22:52.292Z,98443.13
2023-02-11T20:25:19.361Z,98455.75
2023-02-11T20:27:46.368Z,98442.66
2023-02-11T20:30:13.572Z,98452.22
2023-02-11T20:32:40.591Z,98437.41
2023-02-11T20:35:08.750Z,98441.16
2023-02-11T20:37:35.684Z,98446.16
2023-02-11T20:40:02.701Z,98439.66
2023-02-11T20:42:30.627Z,98435.19
2023-02-11T20:44:57.564Z,98432.78
2023-02-11T20:47:24.597Z,98427.97
2023-02-11T20:49:53.895Z,98435.94
2023-02-11T20:52:21.914Z,98431.34
2023-02-11T20:54:48.886Z,98429.59
2023-02-11T20:57:15.807Z,98426.09
2023-02-11T20:59:42.819Z,98431.38
2023-02-11T21:02:10.279Z,98424.66
2023-02-11T21:04:39.199Z,98421.31
2023-02-11T21:07:06.408Z,98424.22
2023-02-11T21:09:33.968Z,98432.88
2023-02-11T21:12:01.812Z,98420.97
2023-02-11T21:14:29.352Z,98420.28
2023-02-11T21:16:56.713Z,98423.66
2023-02-11T21:19:23.708Z,98423.31
2023-02-11T21:21:51.260Z,98428.00
2023-02-11T21:24:18.206Z,98426.47
2023-02-11T21:26:45.273Z,98425.44
2023-02-11T21:29:12.479Z,98425.53
2023-02-11T21:31:40.222Z,98428.94
2023-02-11T21:34:07.854Z,98418.06
2023-02-11T21:36:34.939Z,98425.19
2023-02-11T21:39:03.926Z,98420.97
2023-02-11T21:41:31.915Z,98420.06
2023-02-11T21:43:59.000Z,98422.50
2023-02-11T21:46:26.772Z,98418.41
2023-02-11T21:48:53.848Z,98416.09
2023-02-11T21:51:23.272Z,98410.00
2023-02-11T21:53:58.634Z,98409.06
2023-02-11T21:56:29.767Z,98411.75
2023-02-11T21:58:58.491Z,98398.31
2023-02-11T22:01:28.591Z,98408.16
2023-02-11T22:03:55.582Z,98403.94
2023-02-11T22:06:30.730Z,98411.06
2023-02-11T22:08:58.268Z,98401.56
2023-02-11T22:11:25.178Z,98404.50
2023-02-11T22:13:56.414Z,98409.75
2023-02-11T22:16:24.080Z,98408.25
2023-02-11T22:18:52.225Z,98409.88
2023-02-11T22:21:22.139Z,98406.59
2023-02-11T22:23:50.407Z,98403.44
2023-02-11T22:26:22.880Z,98405.31
2023-02-11T22:28:51.158Z,98409.75
2023-02-11T22:31:21.465Z,98407.44
2023-02-11T22:33:48.598Z,98406.22
2023-02-11T22:36:35.869Z,98414.06
2023-02-11T22:39:08.078Z,98409.53
2023-02-11T22:41:35.305Z,98404.94
2023-02-11T22:44:02.243Z,98399.78
2023-02-11T22:46:29.304Z,98414.41
2023-02-11T22:48:56.800Z,98417.94
2023-02-11T22:51:26.323Z,98415.25
2023-02-11T22:54:01.594Z,98425.34
2023-02-11T22:56:30.400Z,98424.13
2023-02-11T22:59:00.014Z,98428.94
2023-02-11T23:01:27.468Z,98427.53
2023-02-11T23:03:54.713Z,98430.13
2023-02-11T23:06:21.717Z,98440.50
2023-02-11T23:08:48.953Z,98436.19
2023-02-11T23:11:19.895Z,98435.59
2023-02-11T23:13:48.671Z,98447.16
2023-02-11T23:16:18.325Z,98443.69
2023-02-11T23:18:46.913Z,98453.50
2023-02-11T23:21:16.718Z,98455.13
2023-02-11T23:23:44.888Z,98446.34
2023-02-11T23:26:13.471Z,98457.59
2023-02-11T23:28:40.667Z,98451.41
2023-02-11T23:31:22.301Z,98455.13
2023-02-11T23:33:49.830Z,98449.63
2023-02-11T23:36:17.973Z,98464.03
2023-02-11T23:38:49.331Z,98465.66
2023-02-11T23:41:21.002Z,98459.59
2023-02-11T23:43:56.115Z,98475.63
2023-02-11T23:46:24.892Z,98482.66
2023-02-11T23:48:52.375Z,98478.31
2023-02-11T23:51:20.140Z,98487.69
2023-02-11T23:53:49.312Z,98494.09
2023-02-11T23:56:23.212Z,98494.34
2023-02-11T23:58:52.107Z,98498.22
